sensor_id;sensor_type;location;lat;lon;timestamp;P1;durP1;ratioP1;P2;durP2;ratioP2
75167;SDS011;63748;48.088;11.476;2023-02-18T00:02:05;2.70;;;1.20;;
75167;SDS011;63748;48.088;11.476;2023-02-18T00:04:31;3.03;;;1.73;;
75167;SDS011;63748;48.088;11.476;2023-02-18T00:06:58;5.18;;;1.48;;
75167;SDS011;63748;48.088;11.476;2023-02-18T00:09:24;2.42;;;1.10;;
75167;SDS011;63748;48.088;11.476;2023-02-18T00:11:50;3.67;;;1.50;;
75167;SDS011;63748;48.088;11.476;2023-02-18T00:14:17;2.03;;;1.20;;
75167;SDS011;63748;48.088;11.476;2023-02-18T00:16:43;2.58;;;1.25;;
75167;SDS011;63748;48.088;11.476;2023-02-18T00:19:13;1.85;;;1.23;;
75167;SDS011;63748;48.088;11.476;2023-02-18T00:21:39;5.22;;;1.60;;
75167;SDS011;63748;48.088;11.476;2023-02-18T00:24:05;2.53;;;1.30;;
75167;SDS011;63748;48.088;11.476;2023-02-18T00:26:31;2.88;;;1.13;;
75167;SDS011;63748;48.088;11.476;2023-02-18T00:28:58;1.90;;;1.02;;
75167;SDS011;63748;48.088;11.476;2023-02-18T00:31:25;2.00;;;1.10;;
75167;SDS011;63748;48.088;11.476;2023-02-18T00:33:51;1.92;;;1.08;;
75167;SDS011;63748;48.088;11.476;2023-02-18T00:36:18;2.85;;;1.30;;
75167;SDS011;63748;48.088;11.476;2023-02-18T00:38:45;2.80;;;1.08;;
75167;SDS011;63748;48.088;11.476;2023-02-18T00:41:11;3.90;;;1.30;;
75167;SDS011;63748;48.088;11.476;2023-02-18T00:43:37;1.75;;;1.10;;
75167;SDS011;63748;48.088;11.476;2023-02-18T00:46:04;3.22;;;1.20;;
75167;SDS011;63748;48.088;11.476;2023-02-18T00:48:30;2.47;;;1.10;;
75167;SDS011;63748;48.088;11.476;2023-02-18T00:50:56;2.03;;;0.70;;
75167;SDS011;63748;48.088;11.476;2023-02-18T00:53:24;2.40;;;1.08;;
75167;SDS011;63748;48.088;11.476;2023-02-18T00:55:50;2.92;;;1.20;;
75167;SDS011;63748;48.088;11.476;2023-02-18T00:58:17;2.72;;;1.25;;
75167;SDS011;63748;48.088;11.476;2023-02-18T01:00:43;2.47;;;1.30;;
75167;SDS011;63748;48.088;11.476;2023-02-18T01:03:09;4.40;;;1.50;;
75167;SDS011;63748;48.088;11.476;2023-02-18T01:05:36;3.47;;;1.33;;
75167;SDS011;63748;48.088;11.476;2023-02-18T01:08:02;2.00;;;1.05;;
75167;SDS011;63748;48.088;11.476;2023-02-18T01:10:28;2.97;;;1.40;;
75167;SDS011;63748;48.088;11.476;2023-02-18T01:12:54;1.63;;;0.93;;
75167;SDS011;63748;48.088;11.476;2023-02-18T01:15:21;3.35;;;1.20;;
75167;SDS011;63748;48.088;11.476;2023-02-18T01:17:47;3.13;;;1.38;;
75167;SDS011;63748;48.088;11.476;2023-02-18T01:20:15;3.83;;;1.33;;
75167;SDS011;63748;48.088;11.476;2023-02-18T01:22:41;3.25;;;1.58;;
75167;SDS011;63748;48.088;11.476;2023-02-18T01:25:08;2.97;;;1.13;;
75167;SDS011;63748;48.088;11.476;2023-02-18T01:27:34;3.55;;;1.58;;
75167;SDS011;63748;48.088;11.476;2023-02-18T01:30:01;3.47;;;1.70;;
75167;SDS011;63748;48.088;11.476;2023-02-18T01:32:27;3.13;;;1.60;;
75167;SDS011;63748;48.088;11.476;2023-02-18T01:34:53;2.40;;;1.40;;
75167;SDS011;63748;48.088;11.476;2023-02-18T01:37:19;2.45;;;1.50;;
75167;SDS011;63748;48.088;11.476;2023-02-18T01:39:46;2.03;;;1.42;;
75167;SDS011;63748;48.088;11.476;2023-02-18T01:42:17;4.53;;;1.58;;
75167;SDS011;63748;48.088;11.476;2023-02-18T01:44:43;2.83;;;1.48;;
75167;SDS011;63748;48.088;11.476;2023-02-18T01:47:09;1.58;;;1.30;;
75167;SDS011;63748;48.088;11.476;2023-02-18T01:49:35;2.85;;;1.33;;
75167;SDS011;63748;48.088;11.476;2023-02-18T01:52:04;4.88;;;1.67;;
75167;SDS011;63748;48.088;11.476;2023-02-18T01:54:32;3.63;;;1.50;;
75167;SDS011;63748;48.088;11.476;2023-02-18T01:56:59;1.88;;;1.15;;
75167;SDS011;63748;48.088;11.476;2023-02-18T01:59:27;3.45;;;1.45;;
75167;SDS011;63748;48.088;11.476;2023-02-18T02:01:55;3.17;;;1.13;;
75167;SDS011;63748;48.088;11.476;2023-02-18T02:04:21;2.72;;;1.50;;
75167;SDS011;63748;48.088;11.476;2023-02-18T02:06:47;2.85;;;1.40;;
75167;SDS011;63748;48.088;11.476;2023-02-18T02:09:14;3.00;;;1.63;;
75167;SDS011;63748;48.088;11.476;2023-02-18T02:27:00;2.75;;;1.33;;
75167;SDS011;63748;48.088;11.476;2023-02-18T02:32:10;2.08;;;1.13;;
75167;SDS011;63748;48.088;11.476;2023-02-18T02:34:47;1.02;;;0.70;;
75167;SDS011;63748;48.088;11.476;2023-02-18T02:37:19;2.42;;;1.25;;
75167;SDS011;63748;48.088;11.476;2023-02-18T02:44:54;1.30;;;1.05;;
75167;SDS011;63748;48.088;11.476;2023-02-18T02:47:32;2.83;;;1.10;;
75167;SDS011;63748;48.088;11.476;2023-02-18T02:50:49;1.10;;;0.68;;
75167;SDS011;63748;48.088;11.476;2023-02-18T02:52:49;1.92;;;1.05;;
75167;SDS011;63748;48.088;11.476;2023-02-18T02:55:17;1.52;;;0.90;;
75167;SDS011;63748;48.088;11.476;2023-02-18T02:57:45;1.23;;;0.75;;
75167;SDS011;63748;48.088;11.476;2023-02-18T03:05:25;1.30;;;0.90;;
75167;SDS011;63748;48.088;11.476;2023-02-18T03:08:07;1.17;;;0.80;;
75167;SDS011;63748;48.088;11.476;2023-02-18T03:10:45;1.83;;;1.10;;
75167;SDS011;63748;48.088;11.476;2023-02-18T03:18:14;1.55;;;0.65;;
75167;SDS011;63748;48.088;11.476;2023-02-18T03:20:48;1.33;;;0.70;;
75167;SDS011;63748;48.088;11.476;2023-02-18T03:25:42;2.03;;;0.73;;
75167;SDS011;63748;48.088;11.476;2023-02-18T03:28:16;1.65;;;0.85;;
75167;SDS011;63748;48.088;11.476;2023-02-18T03:33:10;3.03;;;0.93;;
75167;SDS011;63748;48.088;11.476;2023-02-18T03:35:38;1.33;;;0.70;;
75167;SDS011;63748;48.088;11.476;2023-02-18T03:38:15;1.45;;;0.90;;
75167;SDS011;63748;48.088;11.476;2023-02-18T03:40:44;1.65;;;0.90;;
75167;SDS011;63748;48.088;11.476;2023-02-18T03:43:10;1.50;;;1.00;;
75167;SDS011;63748;48.088;11.476;2023-02-18T03:45:36;2.53;;;1.17;;
75167;SDS011;63748;48.088;11.476;2023-02-18T03:48:02;1.52;;;0.95;;
75167;SDS011;63748;48.088;11.476;2023-02-18T03:50:28;3.47;;;1.25;;
75167;SDS011;63748;48.088;11.476;2023-02-18T03:52:54;1.50;;;0.90;;
75167;SDS011;63748;48.088;11.476;2023-02-18T03:55:20;1.63;;;0.95;;
75167;SDS011;63748;48.088;11.476;2023-02-18T03:57:46;3.63;;;1.60;;
75167;SDS011;63748;48.088;11.476;2023-02-18T04:00:12;4.47;;;1.20;;
75167;SDS011;63748;48.088;11.476;2023-02-18T04:02:39;2.28;;;1.40;;
75167;SDS011;63748;48.088;11.476;2023-02-18T04:05:05;2.50;;;1.10;;
75167;SDS011;63748;48.088;11.476;2023-02-18T04:07:31;1.65;;;1.33;;
75167;SDS011;63748;48.088;11.476;2023-02-18T04:09:57;2.28;;;1.50;;
75167;SDS011;63748;48.088;11.476;2023-02-18T04:12:23;1.85;;;1.05;;
75167;SDS011;63748;48.088;11.476;2023-02-18T04:14:49;1.45;;;1.00;;
75167;SDS011;63748;48.088;11.476;2023-02-18T04:17:16;2.67;;;1.10;;
75167;SDS011;63748;48.088;11.476;2023-02-18T04:19:42;2.60;;;1.17;;
75167;SDS011;63748;48.088;11.476;2023-02-18T04:22:08;2.80;;;1.20;;
75167;SDS011;63748;48.088;11.476;2023-02-18T04:24:34;1.60;;;1.00;;
75167;SDS011;63748;48.088;11.476;2023-02-18T04:27:00;1.35;;;1.02;;
75167;SDS011;63748;48.088;11.476;2023-02-18T04:29:26;3.70;;;1.20;;
75167;SDS011;63748;48.088;11.476;2023-02-18T04:31:52;1.75;;;1.08;;
75167;SDS011;63748;48.088;11.476;2023-02-18T04:34:18;1.45;;;1.00;;
75167;SDS011;63748;48.088;11.476;2023-02-18T04:36:44;1.67;;;1.00;;
75167;SDS011;63748;48.088;11.476;2023-02-18T04:39:10;2.38;;;1.00;;
75167;SDS011;63748;48.088;11.476;2023-02-18T04:41:36;1.83;;;1.00;;
75167;SDS011;63748;48.088;11.476;2023-02-18T04:44:02;1.25;;;0.85;;
75167;SDS011;63748;48.088;11.476;2023-02-18T04:46:28;1.73;;;1.00;;
75167;SDS011;63748;48.088;11.476;2023-02-18T04:48:55;1.60;;;1.10;;
75167;SDS011;63748;48.088;11.476;2023-02-18T04:51:21;1.63;;;0.80;;
75167;SDS011;63748;48.088;11.476;2023-02-18T04:53:47;1.85;;;1.02;;
75167;SDS011;63748;48.088;11.476;2023-02-18T04:56:13;1.00;;;0.60;;
75167;SDS011;63748;48.088;11.476;2023-02-18T04:58:39;1.80;;;0.95;;
75167;SDS011;63748;48.088;11.476;2023-02-18T05:01:05;0.98;;;0.70;;
75167;SDS011;63748;48.088;11.476;2023-02-18T05:03:31;1.48;;;0.90;;
75167;SDS011;63748;48.088;11.476;2023-02-18T05:05:57;1.20;;;0.88;;
75167;SDS011;63748;48.088;11.476;2023-02-18T05:08:24;0.90;;;0.75;;
75167;SDS011;63748;48.088;11.476;2023-02-18T05:10:50;1.20;;;0.70;;
75167;SDS011;63748;48.088;11.476;2023-02-18T05:13:16;1.02;;;0.60;;
75167;SDS011;63748;48.088;11.476;2023-02-18T05:15:42;1.70;;;0.70;;
75167;SDS011;63748;48.088;11.476;2023-02-18T05:18:08;1.38;;;0.60;;
75167;SDS011;63748;48.088;11.476;2023-02-18T05:20:34;1.23;;;0.60;;
75167;SDS011;63748;48.088;11.476;2023-02-18T05:23:00;1.50;;;0.60;;
75167;SDS011;63748;48.088;11.476;2023-02-18T05:25:26;0.77;;;0.52;;
75167;SDS011;63748;48.088;11.476;2023-02-18T05:27:52;0.75;;;0.50;;
75167;SDS011;63748;48.088;11.476;2023-02-18T05:30:18;0.65;;;0.50;;
75167;SDS011;63748;48.088;11.476;2023-02-18T05:32:44;0.68;;;0.55;;
75167;SDS011;63748;48.088;11.476;2023-02-18T05:35:10;2.00;;;0.70;;
75167;SDS011;63748;48.088;11.476;2023-02-18T05:37:38;0.70;;;0.50;;
75167;SDS011;63748;48.088;11.476;2023-02-18T05:40:04;0.88;;;0.50;;
75167;SDS011;63748;48.088;11.476;2023-02-18T05:42:30;1.10;;;0.60;;
75167;SDS011;63748;48.088;11.476;2023-02-18T05:44:57;0.47;;;0.47;;
75167;SDS011;63748;48.088;11.476;2023-02-18T05:47:23;0.47;;;0.38;;
75167;SDS011;63748;48.088;11.476;2023-02-18T05:49:49;1.52;;;0.60;;
75167;SDS011;63748;48.088;11.476;2023-02-18T05:52:15;0.65;;;0.40;;
75167;SDS011;63748;48.088;11.476;2023-02-18T05:54:42;1.50;;;0.95;;
75167;SDS011;63748;48.088;11.476;2023-02-18T05:57:09;1.58;;;0.63;;
75167;SDS011;63748;48.088;11.476;2023-02-18T05:59:35;0.98;;;0.60;;
75167;SDS011;63748;48.088;11.476;2023-02-18T06:02:01;1.38;;;0.60;;
75167;SDS011;63748;48.088;11.476;2023-02-18T06:04:27;0.80;;;0.52;;
75167;SDS011;63748;48.088;11.476;2023-02-18T06:06:53;0.82;;;0.60;;
75167;SDS011;63748;48.088;11.476;2023-02-18T06:09:19;0.60;;;0.52;;
75167;SDS011;63748;48.088;11.476;2023-02-18T06:11:45;0.98;;;0.60;;
75167;SDS011;63748;48.088;11.476;2023-02-18T06:14:11;1.05;;;0.70;;
75167;SDS011;63748;48.088;11.476;2023-02-18T06:16:37;1.58;;;0.57;;
75167;SDS011;63748;48.088;11.476;2023-02-18T06:19:04;0.30;;;0.30;;
75167;SDS011;63748;48.088;11.476;2023-02-18T06:21:30;0.82;;;0.40;;
75167;SDS011;63748;48.088;11.476;2023-02-18T06:23:56;1.38;;;0.55;;
75167;SDS011;63748;48.088;11.476;2023-02-18T06:26:22;0.77;;;0.50;;
75167;SDS011;63748;48.088;11.476;2023-02-18T06:28:48;0.32;;;0.30;;
75167;SDS011;63748;48.088;11.476;2023-02-18T06:31:14;0.85;;;0.50;;
75167;SDS011;63748;48.088;11.476;2023-02-18T06:33:40;0.65;;;0.30;;
75167;SDS011;63748;48.088;11.476;2023-02-18T06:36:07;0.30;;;0.30;;
75167;SDS011;63748;48.088;11.476;2023-02-18T06:38:35;0.30;;;0.20;;
75167;SDS011;63748;48.088;11.476;2023-02-18T06:41:01;0.77;;;0.55;;
75167;SDS011;63748;48.088;11.476;2023-02-18T06:43:28;0.60;;;0.40;;
75167;SDS011;63748;48.088;11.476;2023-02-18T06:45:54;0.80;;;0.60;;
75167;SDS011;63748;48.088;11.476;2023-02-18T06:48:20;1.73;;;0.40;;
75167;SDS011;63748;48.088;11.476;2023-02-18T06:50:47;0.50;;;0.40;;
75167;SDS011;63748;48.088;11.476;2023-02-18T06:53:13;0.20;;;0.20;;
75167;SDS011;63748;48.088;11.476;2023-02-18T06:55:41;0.50;;;0.50;;
75167;SDS011;63748;48.088;11.476;2023-02-18T06:58:07;0.30;;;0.30;;
75167;SDS011;63748;48.088;11.476;2023-02-18T07:00:33;0.75;;;0.60;;
75167;SDS011;63748;48.088;11.476;2023-02-18T07:03:00;0.38;;;0.32;;
75167;SDS011;63748;48.088;11.476;2023-02-18T07:05:26;0.50;;;0.40;;
75167;SDS011;63748;48.088;11.476;2023-02-18T07:07:52;0.22;;;0.22;;
75167;SDS011;63748;48.088;11.476;2023-02-18T07:10:18;0.28;;;0.28;;
75167;SDS011;63748;48.088;11.476;2023-02-18T07:12:44;0.38;;;0.30;;
75167;SDS011;63748;48.088;11.476;2023-02-18T07:15:10;0.70;;;0.60;;
75167;SDS011;63748;48.088;11.476;2023-02-18T07:17:36;0.45;;;0.25;;
75167;SDS011;63748;48.088;11.476;2023-02-18T07:20:03;0.28;;;0.28;;
75167;SDS011;63748;48.088;11.476;2023-02-18T07:22:29;0.63;;;0.32;;
75167;SDS011;63748;48.088;11.476;2023-02-18T07:24:55;0.63;;;0.30;;
75167;SDS011;63748;48.088;11.476;2023-02-18T07:27:21;0.77;;;0.47;;
75167;SDS011;63748;48.088;11.476;2023-02-18T07:29:47;0.75;;;0.43;;
75167;SDS011;63748;48.088;11.476;2023-02-18T07:32:14;0.30;;;0.30;;
75167;SDS011;63748;48.088;11.476;2023-02-18T07:34:41;0.35;;;0.35;;
75167;SDS011;63748;48.088;11.476;2023-02-18T07:37:07;0.98;;;0.30;;
75167;SDS011;63748;48.088;11.476;2023-02-18T07:39:40;0.75;;;0.30;;
75167;SDS011;63748;48.088;11.476;2023-02-18T07:42:07;0.65;;;0.47;;
75167;SDS011;63748;48.088;11.476;2023-02-18T07:44:34;1.27;;;0.82;;
75167;SDS011;63748;48.088;11.476;2023-02-18T07:47:00;0.32;;;0.30;;
75167;SDS011;63748;48.088;11.476;2023-02-18T07:49:26;0.77;;;0.40;;
75167;SDS011;63748;48.088;11.476;2023-02-18T07:51:52;1.23;;;0.57;;
75167;SDS011;63748;48.088;11.476;2023-02-18T07:54:19;2.35;;;0.50;;
75167;SDS011;63748;48.088;11.476;2023-02-18T07:56:45;1.33;;;0.50;;
75167;SDS011;63748;48.088;11.476;2023-02-18T07:59:11;0.20;;;0.20;;
75167;SDS011;63748;48.088;11.476;2023-02-18T08:01:38;0.38;;;0.30;;
75167;SDS011;63748;48.088;11.476;2023-02-18T08:04:04;0.20;;;0.20;;
75167;SDS011;63748;48.088;11.476;2023-02-18T08:06:36;1.00;;;0.35;;
75167;SDS011;63748;48.088;11.476;2023-02-18T08:09:02;0.30;;;0.30;;
75167;SDS011;63748;48.088;11.476;2023-02-18T08:11:29;0.30;;;0.30;;
75167;SDS011;63748;48.088;11.476;2023-02-18T08:13:55;0.15;;;0.13;;
75167;SDS011;63748;48.088;11.476;2023-02-18T08:16:21;0.90;;;0.50;;
75167;SDS011;63748;48.088;11.476;2023-02-18T08:18:48;0.20;;;0.17;;
75167;SDS011;63748;48.088;11.476;2023-02-18T08:21:14;0.57;;;0.35;;
75167;SDS011;63748;48.088;11.476;2023-02-18T08:23:41;0.70;;;0.50;;
75167;SDS011;63748;48.088;11.476;2023-02-18T08:26:07;1.02;;;0.30;;
75167;SDS011;63748;48.088;11.476;2023-02-18T08:28:34;2.75;;;0.70;;
75167;SDS011;63748;48.088;11.476;2023-02-18T08:31:00;0.40;;;0.20;;
75167;SDS011;63748;48.088;11.476;2023-02-18T08:33:26;0.30;;;0.30;;
75167;SDS011;63748;48.088;11.476;2023-02-18T08:35:52;1.00;;;0.47;;
75167;SDS011;63748;48.088;11.476;2023-02-18T08:38:19;2.45;;;0.50;;
75167;SDS011;63748;48.088;11.476;2023-02-18T08:40:46;0.47;;;0.40;;
75167;SDS011;63748;48.088;11.476;2023-02-18T08:43:12;0.63;;;0.40;;
75167;SDS011;63748;48.088;11.476;2023-02-18T08:45:38;0.57;;;0.43;;
75167;SDS011;63748;48.088;11.476;2023-02-18T08:48:05;1.00;;;0.50;;
75167;SDS011;63748;48.088;11.476;2023-02-18T08:50:32;1.38;;;0.60;;
75167;SDS011;63748;48.088;11.476;2023-02-18T08:52:58;0.82;;;0.43;;
75167;SDS011;63748;48.088;11.476;2023-02-18T08:55:27;0.88;;;0.40;;
75167;SDS011;63748;48.088;11.476;2023-02-18T08:57:53;0.82;;;0.40;;
75167;SDS011;63748;48.088;11.476;2023-02-18T09:00:19;0.57;;;0.50;;
75167;SDS011;63748;48.088;11.476;2023-02-18T09:02:45;0.40;;;0.40;;
75167;SDS011;63748;48.088;11.476;2023-02-18T09:05:12;1.05;;;0.60;;
75167;SDS011;63748;48.088;11.476;2023-02-18T09:07:38;1.65;;;0.68;;
75167;SDS011;63748;48.088;11.476;2023-02-18T09:10:05;0.77;;;0.40;;
75167;SDS011;63748;48.088;11.476;2023-02-18T09:12:31;0.57;;;0.47;;
75167;SDS011;63748;48.088;11.476;2023-02-18T09:14:57;1.27;;;0.65;;
75167;SDS011;63748;48.088;11.476;2023-02-18T09:17:24;0.90;;;0.50;;
75167;SDS011;63748;48.088;11.476;2023-02-18T09:19:50;0.75;;;0.40;;
75167;SDS011;63748;48.088;11.476;2023-02-18T09:22:17;0.68;;;0.47;;
75167;SDS011;63748;48.088;11.476;2023-02-18T09:24:43;1.25;;;0.63;;
75167;SDS011;63748;48.088;11.476;2023-02-18T09:27:09;0.35;;;0.30;;
75167;SDS011;63748;48.088;11.476;2023-02-18T09:29:39;1.38;;;0.50;;
75167;SDS011;63748;48.088;11.476;2023-02-18T09:32:05;0.40;;;0.40;;
75167;SDS011;63748;48.088;11.476;2023-02-18T09:34:32;0.50;;;0.43;;
75167;SDS011;63748;48.088;11.476;2023-02-18T09:36:58;1.52;;;0.90;;
75167;SDS011;63748;48.088;11.476;2023-02-18T09:39:24;0.47;;;0.35;;
75167;SDS011;63748;48.088;11.476;2023-02-18T09:41:51;1.35;;;0.40;;
75167;SDS011;63748;48.088;11.476;2023-02-18T09:44:26;0.47;;;0.47;;
75167;SDS011;63748;48.088;11.476;2023-02-18T09:46:57;0.60;;;0.60;;
75167;SDS011;63748;48.088;11.476;2023-02-18T09:49:25;0.98;;;0.30;;
75167;SDS011;63748;48.088;11.476;2023-02-18T09:51:56;1.50;;;0.57;;
75167;SDS011;63748;48.088;11.476;2023-02-18T09:54:25;0.60;;;0.45;;
75167;SDS011;63748;48.088;11.476;2023-02-18T09:56:52;0.40;;;0.40;;
75167;SDS011;63748;48.088;11.476;2023-02-18T09:59:19;2.08;;;0.80;;
75167;SDS011;63748;48.088;11.476;2023-02-18T10:01:47;0.45;;;0.40;;
75167;SDS011;63748;48.088;11.476;2023-02-18T10:04:17;0.65;;;0.40;;
75167;SDS011;63748;48.088;11.476;2023-02-18T10:06:45;1.08;;;0.50;;
75167;SDS011;63748;48.088;11.476;2023-02-18T10:09:19;0.73;;;0.60;;
75167;SDS011;63748;48.088;11.476;2023-02-18T10:11:47;0.75;;;0.50;;
75167;SDS011;63748;48.088;11.476;2023-02-18T10:14:15;0.70;;;0.45;;
75167;SDS011;63748;48.088;11.476;2023-02-18T10:16:42;0.93;;;0.50;;
75167;SDS011;63748;48.088;11.476;2023-02-18T10:19:19;1.08;;;0.50;;
75167;SDS011;63748;48.088;11.476;2023-02-18T10:21:45;0.73;;;0.52;;
75167;SDS011;63748;48.088;11.476;2023-02-18T10:24:24;1.38;;;0.57;;
75167;SDS011;63748;48.088;11.476;2023-02-18T10:26:52;0.30;;;0.30;;
75167;SDS011;63748;48.088;11.476;2023-02-18T10:29:19;1.05;;;0.40;;
75167;SDS011;63748;48.088;11.476;2023-02-18T10:34:53;1.13;;;0.40;;
75167;SDS011;63748;48.088;11.476;2023-02-18T10:42:45;0.65;;;0.50;;
75167;SDS011;63748;48.088;11.476;2023-02-18T10:45:27;0.50;;;0.45;;
75167;SDS011;63748;48.088;11.476;2023-02-18T10:52:54;0.77;;;0.40;;
75167;SDS011;63748;48.088;11.476;2023-02-18T10:55:32;2.05;;;1.02;;
75167;SDS011;63748;48.088;11.476;2023-02-18T10:57:59;0.30;;;0.30;;
75167;SDS011;63748;48.088;11.476;2023-02-18T11:00:25;4.07;;;0.70;;
75167;SDS011;63748;48.088;11.476;2023-02-18T11:03:03;0.32;;;0.30;;
75167;SDS011;63748;48.088;11.476;2023-02-18T11:05:35;1.13;;;0.60;;
75167;SDS011;63748;48.088;11.476;2023-02-18T11:08:01;1.45;;;0.93;;
75167;SDS011;63748;48.088;11.476;2023-02-18T11:10:32;0.63;;;0.38;;
75167;SDS011;63748;48.088;11.476;2023-02-18T11:15:26;0.85;;;0.32;;
75167;SDS011;63748;48.088;11.476;2023-02-18T11:17:53;0.90;;;0.40;;
75167;SDS011;63748;48.088;11.476;2023-02-18T11:22:46;0.60;;;0.30;;
75167;SDS011;63748;48.088;11.476;2023-02-18T11:25:19;0.40;;;0.40;;
75167;SDS011;63748;48.088;11.476;2023-02-18T11:27:50;1.75;;;0.50;;
75167;SDS011;63748;48.088;11.476;2023-02-18T11:32:43;0.70;;;0.45;;
75167;SDS011;63748;48.088;11.476;2023-02-18T11:35:16;0.57;;;0.45;;
75167;SDS011;63748;48.088;11.476;2023-02-18T11:37:43;2.47;;;0.50;;
75167;SDS011;63748;48.088;11.476;2023-02-18T11:43:03;4.20;;;0.70;;
75167;SDS011;63748;48.088;11.476;2023-02-18T11:45:30;0.75;;;0.52;;
75167;SDS011;63748;48.088;11.476;2023-02-18T11:50:23;0.88;;;0.50;;
75167;SDS011;63748;48.088;11.476;2023-02-18T11:52:50;0.47;;;0.30;;
75167;SDS011;63748;48.088;11.476;2023-02-18T11:55:20;0.47;;;0.32;;
75167;SDS011;63748;48.088;11.476;2023-02-18T11:57:54;1.35;;;0.50;;
75167;SDS011;63748;48.088;11.476;2023-02-18T12:00:22;0.43;;;0.40;;
75167;SDS011;63748;48.088;11.476;2023-02-18T12:05:20;1.52;;;0.50;;
75167;SDS011;63748;48.088;11.476;2023-02-18T12:10:46;0.65;;;0.43;;
75167;SDS011;63748;48.088;11.476;2023-02-18T12:18:23;0.63;;;0.43;;
75167;SDS011;63748;48.088;11.476;2023-02-18T12:21:01;0.95;;;0.50;;
75167;SDS011;63748;48.088;11.476;2023-02-18T12:23:32;2.05;;;0.50;;
75167;SDS011;63748;48.088;11.476;2023-02-18T12:36:05;1.45;;;0.60;;
75167;SDS011;63748;48.088;11.476;2023-02-18T12:41:29;1.02;;;0.50;;
75167;SDS011;63748;48.088;11.476;2023-02-18T12:44:08;0.52;;;0.40;;
75167;SDS011;63748;48.088;11.476;2023-02-18T12:46:40;0.70;;;0.50;;
75167;SDS011;63748;48.088;11.476;2023-02-18T12:52:00;0.40;;;0.40;;
75167;SDS011;63748;48.088;11.476;2023-02-18T12:54:46;0.77;;;0.45;;
75167;SDS011;63748;48.088;11.476;2023-02-18T12:57:35;1.42;;;0.70;;
75167;SDS011;63748;48.088;11.476;2023-02-18T13:08:40;1.30;;;0.70;;
75167;SDS011;63748;48.088;11.476;2023-02-18T13:13:24;0.43;;;0.43;;
75167;SDS011;63748;48.088;11.476;2023-02-18T13:15:52;0.85;;;0.57;;
75167;SDS011;63748;48.088;11.476;2023-02-18T13:18:24;0.52;;;0.40;;
75167;SDS011;63748;48.088;11.476;2023-02-18T13:20:53;2.65;;;0.60;;
75167;SDS011;63748;48.088;11.476;2023-02-18T13:23:25;0.68;;;0.50;;
75167;SDS011;63748;48.088;11.476;2023-02-18T13:25:57;0.75;;;0.50;;
75167;SDS011;63748;48.088;11.476;2023-02-18T13:33:43;0.77;;;0.40;;
75167;SDS011;63748;48.088;11.476;2023-02-18T13:36:22;1.90;;;0.47;;
75167;SDS011;63748;48.088;11.476;2023-02-18T13:41:16;0.93;;;0.70;;
75167;SDS011;63748;48.088;11.476;2023-02-18T13:43:42;0.63;;;0.52;;
75167;SDS011;63748;48.088;11.476;2023-02-18T13:48:40;0.45;;;0.45;;
75167;SDS011;63748;48.088;11.476;2023-02-18T13:51:08;3.75;;;0.73;;
75167;SDS011;63748;48.088;11.476;2023-02-18T13:53:35;1.00;;;0.70;;
75167;SDS011;63748;48.088;11.476;2023-02-18T13:56:21;0.50;;;0.43;;
75167;SDS011;63748;48.088;11.476;2023-02-18T13:58:48;0.50;;;0.43;;
75167;SDS011;63748;48.088;11.476;2023-02-18T14:01:22;1.10;;;0.80;;
75167;SDS011;63748;48.088;11.476;2023-02-18T14:03:51;1.38;;;0.70;;
75167;SDS011;63748;48.088;11.476;2023-02-18T14:06:19;1.45;;;0.70;;
75167;SDS011;63748;48.088;11.476;2023-02-18T14:08:45;0.85;;;0.50;;
75167;SDS011;63748;48.088;11.476;2023-02-18T14:16:25;1.52;;;0.63;;
75167;SDS011;63748;48.088;11.476;2023-02-18T14:18:55;1.08;;;0.57;;
75167;SDS011;63748;48.088;11.476;2023-02-18T14:21:34;1.88;;;0.70;;
75167;SDS011;63748;48.088;11.476;2023-02-18T14:24:01;1.65;;;0.73;;
75167;SDS011;63748;48.088;11.476;2023-02-18T14:29:01;0.50;;;0.50;;
75167;SDS011;63748;48.088;11.476;2023-02-18T14:31:34;0.60;;;0.60;;
75167;SDS011;63748;48.088;11.476;2023-02-18T14:41:35;1.00;;;0.52;;
75167;SDS011;63748;48.088;11.476;2023-02-18T14:44:14;0.93;;;0.73;;
75167;SDS011;63748;48.088;11.476;2023-02-18T14:51:58;1.10;;;0.68;;
75167;SDS011;63748;48.088;11.476;2023-02-18T14:54:25;1.55;;;0.80;;
75167;SDS011;63748;48.088;11.476;2023-02-18T14:56:54;1.00;;;0.50;;
75167;SDS011;63748;48.088;11.476;2023-02-18T14:59:21;2.67;;;0.90;;
75167;SDS011;63748;48.088;11.476;2023-02-18T15:01:48;1.02;;;0.70;;
75167;SDS011;63748;48.088;11.476;2023-02-18T15:04:14;0.57;;;0.52;;
75167;SDS011;63748;48.088;11.476;2023-02-18T15:06:40;0.88;;;0.50;;
75167;SDS011;63748;48.088;11.476;2023-02-18T15:09:20;1.33;;;0.60;;
75167;SDS011;63748;48.088;11.476;2023-02-18T15:11:48;0.45;;;0.30;;
75167;SDS011;63748;48.088;11.476;2023-02-18T15:14:34;0.70;;;0.55;;
75167;SDS011;63748;48.088;11.476;2023-02-18T15:17:01;0.70;;;0.40;;
75167;SDS011;63748;48.088;11.476;2023-02-18T15:19:28;0.88;;;0.52;;
75167;SDS011;63748;48.088;11.476;2023-02-18T15:21:55;0.80;;;0.32;;
75167;SDS011;63748;48.088;11.476;2023-02-18T15:24:33;0.68;;;0.60;;
75167;SDS011;63748;48.088;11.476;2023-02-18T15:27:04;0.50;;;0.50;;
75167;SDS011;63748;48.088;11.476;2023-02-18T15:29:36;0.82;;;0.35;;
75167;SDS011;63748;48.088;11.476;2023-02-18T15:32:12;1.45;;;0.60;;
75167;SDS011;63748;48.088;11.476;2023-02-18T15:34:41;0.32;;;0.28;;
75167;SDS011;63748;48.088;11.476;2023-02-18T15:37:09;0.43;;;0.40;;
75167;SDS011;63748;48.088;11.476;2023-02-18T15:39:36;0.65;;;0.30;;
75167;SDS011;63748;48.088;11.476;2023-02-18T15:42:08;0.45;;;0.35;;
75167;SDS011;63748;48.088;11.476;2023-02-18T15:44:35;0.40;;;0.40;;
75167;SDS011;63748;48.088;11.476;2023-02-18T15:47:03;0.95;;;0.52;;
75167;SDS011;63748;48.088;11.476;2023-02-18T15:49:31;1.48;;;0.60;;
75167;SDS011;63748;48.088;11.476;2023-02-18T15:51:58;2.78;;;0.50;;
75167;SDS011;63748;48.088;11.476;2023-02-18T15:54:25;2.10;;;0.52;;
75167;SDS011;63748;48.088;11.476;2023-02-18T15:56:52;2.30;;;1.23;;
75167;SDS011;63748;48.088;11.476;2023-02-18T15:59:21;0.55;;;0.30;;
75167;SDS011;63748;48.088;11.476;2023-02-18T16:01:50;1.02;;;0.50;;
75167;SDS011;63748;48.088;11.476;2023-02-18T16:04:17;0.40;;;0.25;;
75167;SDS011;63748;48.088;11.476;2023-02-18T16:06:44;0.85;;;0.50;;
75167;SDS011;63748;48.088;11.476;2023-02-18T16:09:14;0.82;;;0.45;;
75167;SDS011;63748;48.088;11.476;2023-02-18T16:11:42;0.35;;;0.35;;
75167;SDS011;63748;48.088;11.476;2023-02-18T16:14:26;4.00;;;0.45;;
75167;SDS011;63748;48.088;11.476;2023-02-18T16:16:59;1.25;;;0.60;;
75167;SDS011;63748;48.088;11.476;2023-02-18T16:19:29;1.08;;;0.60;;
75167;SDS011;63748;48.088;11.476;2023-02-18T16:21:56;0.85;;;0.32;;
75167;SDS011;63748;48.088;11.476;2023-02-18T16:24:23;0.57;;;0.35;;
75167;SDS011;63748;48.088;11.476;2023-02-18T16:26:50;0.50;;;0.40;;
75167;SDS011;63748;48.088;11.476;2023-02-18T16:29:23;0.70;;;0.43;;
75167;SDS011;63748;48.088;11.476;2023-02-18T16:31:49;0.88;;;0.50;;
75167;SDS011;63748;48.088;11.476;2023-02-18T16:34:15;1.08;;;0.30;;
75167;SDS011;63748;48.088;11.476;2023-02-18T16:36:42;0.68;;;0.38;;
75167;SDS011;63748;48.088;11.476;2023-02-18T16:39:28;0.90;;;0.50;;
75167;SDS011;63748;48.088;11.476;2023-02-18T16:41:55;0.70;;;0.50;;
75167;SDS011;63748;48.088;11.476;2023-02-18T16:44:21;0.68;;;0.50;;
75167;SDS011;63748;48.088;11.476;2023-02-18T16:46:48;0.95;;;0.75;;
75167;SDS011;63748;48.088;11.476;2023-02-18T16:49:14;0.90;;;0.70;;
75167;SDS011;63748;48.088;11.476;2023-02-18T16:51:40;0.40;;;0.40;;